Chalan Pago, Guam
Current Conditions -  °F | °C
As of 9:54 PM on Monday 24 Nov 2014 (Local Time) from PGUM Reporting Station
Scattered Clouds Scattered Clouds  
Wind Chill: 81°   Ceiling: Unl
Heat Index: 87°   Visibility: 10mi
Dew Point: 76°   Wind: 8mph
Humidity: 85%   Direction: 50°NE
Pressure: 29.9"   Gusts: NA
Location:  13.4744°N, 144.7478°E
Report Text: PGUM 241154Z 05007KT 10SM FEW020 SCT100 27/24 A2990 RMK AO2 SLP117 70010 T02720244 10306 20272 50013
Loading
Personal Weather Stations






























Interactive Weather Map New forecast layout! Learn more

10-Day Weather Forecast

Advertisements
Track Severe Weather on mobile